Time;durP1;ratioP1;P1;durP2;ratioP2;P2;SDS_P1;SDS_P2;PMS_P1;PMS_P2;Temp;Humidity;BMP_temperature;BMP_pressure;BME280_temperature;BME280_humidity;BME280_pressure;Samples;Min_cycle;Max_cycle;Signal;HPM_P1;HPM_P2
2022/08/23 00:07:57;;;;;;;6;8.9;;;;;;;17.5;100;98160;;;;
2022/08/23 00:17:59;;;;;;;4.5;7.1;;;;;;;17.5;100;98160;;;;
2022/08/23 00:28:57;;;;;;;4.5;7.1;;;;;;;17.7;100;98190;;;;
2022/08/23 00:38:57;;;;;;;4.5;7.1;;;;;;;17.8;100;98200;;;;
2022/08/23 00:49:57;;;;;;;6.5;10.9;;;;;;;17.9;100;98210;;;;
2022/08/23 00:59:57;;;;;;;6.5;10.9;;;;;;;17.9;100;98200;;;;
2022/08/23 01:09:57;;;;;;;6.5;10.9;;;;;;;17.9;100;98210;;;;
2022/08/23 01:20:57;;;;;;;7.5;10.8;;;;;;;17.8;100;98200;;;;
2022/08/23 01:30:57;;;;;;;7.5;10.8;;;;;;;17.8;100;98210;;;;
2022/08/23 01:41:57;;;;;;;7.5;10.8;;;;;;;17.9;100;98200;;;;
2022/08/23 01:51:57;;;;;;;7.7;10;;;;;;;18;100;98200;;;;
2022/08/23 02:02:58;;;;;;;7.7;10;;;;;;;17.9;100;98200;;;;
2022/08/23 02:12:58;;;;;;;7.7;10;;;;;;;17.8;100;98210;;;;
2022/08/23 02:23:57;;;;;;;6.3;10.2;;;;;;;17.6;100;98200;;;;
2022/08/23 02:33:57;;;;;;;6.3;10.2;;;;;;;17.7;100;98200;;;;
2022/08/23 02:44:58;;;;;;;6.3;10.2;;;;;;;17.7;100;98210;;;;
2022/08/23 02:55:57;;;;;;;5.7;7.5;;;;;;;17.8;100;98210;;;;
2022/08/23 03:06:57;;;;;;;5.7;7.5;;;;;;;17.9;100;98210;;;;
2022/08/23 03:17:57;;;;;;;6.7;9.3;;;;;;;17.9;100;98220;;;;
2022/08/23 03:27:57;;;;;;;6.7;9.3;;;;;;;17.7;100;98220;;;;
2022/08/23 03:37:57;;;;;;;6.7;9.3;;;;;;;17.7;100;98240;;;;
2022/08/23 03:48:58;;;;;;;7;10;;;;;;;17.7;100;98230;;;;
2022/08/23 03:59:58;;;;;;;7;10;;;;;;;17.7;100;98250;;;;
2022/08/23 04:10:57;;;;;;;7;10;;;;;;;17.5;100;98250;;;;
2022/08/23 04:20:57;;;;;;;8.6;12.8;;;;;;;17.7;100;98260;;;;
2022/08/23 04:31:58;;;;;;;8.6;12.8;;;;;;;17.8;100;98260;;;;
2022/08/23 04:42:29;;;;;;;8.6;12.8;;;;;;;17.8;100;98260;;;;
2022/08/23 04:52:57;;;;;;;9.9;15.2;;;;;;;18.1;100;98280;;;;
2022/08/23 05:02:57;;;;;;;9.9;15.2;;;;;;;18.3;100;98290;;;;
2022/08/23 05:12:57;;;;;;;9.9;15.2;;;;;;;18.6;100;98300;;;;
2022/08/23 05:22:57;;;;;;;8.9;12.4;;;;;;;18.8;100;98310;;;;
2022/08/23 05:33:57;;;;;;;8.9;12.4;;;;;;;19;100;98320;;;;
2022/08/23 05:44:57;;;;;;;8.9;12.4;;;;;;;19;100;98320;;;;
2022/08/23 05:55:57;;;;;;;13.9;20.1;;;;;;;19.1;100;98330;;;;
2022/08/23 06:06:57;;;;;;;13.9;20.1;;;;;;;19.3;100;98330;;;;
2022/08/23 06:17:57;;;;;;;14.2;20.2;;;;;;;19.3;100;98340;;;;
2022/08/23 06:27:57;;;;;;;14.2;20.2;;;;;;;19.2;100;98350;;;;
2022/08/23 06:38:57;;;;;;;14.2;20.2;;;;;;;19.4;100;98360;;;;
2022/08/23 06:49:57;;;;;;;15.6;23.2;;;;;;;20.1;100;98360;;;;
2022/08/23 06:59:57;;;;;;;15.6;23.2;;;;;;;20.6;100;98370;;;;
2022/08/23 07:09:57;;;;;;;15.6;23.2;;;;;;;20.5;100;98360;;;;
2022/08/23 07:20:58;;;;;;;12.9;17.5;;;;;;;21.1;100;98380;;;;
2022/08/23 07:31:57;;;;;;;12.9;17.5;;;;;;;21.4;100;98380;;;;
2022/08/23 07:42:57;;;;;;;12.9;17.5;;;;;;;21.5;100;98400;;;;
2022/08/23 07:52:57;;;;;;;11.7;15.7;;;;;;;22.1;100;98400;;;;
2022/08/23 08:02:57;;;;;;;11.7;15.7;;;;;;;22.9;100;98410;;;;
2022/08/23 08:13:57;;;;;;;11.7;15.7;;;;;;;22.9;100;98410;;;;
2022/08/23 08:24:57;;;;;;;9.3;14.1;;;;;;;23.4;100;98420;;;;
2022/08/23 08:34:57;;;;;;;9.3;14.1;;;;;;;23.6;100;98430;;;;
2022/08/23 08:45:57;;;;;;;9.3;14.1;;;;;;;23.5;100;98430;;;;
2022/08/23 08:55:57;;;;;;;7;10.1;;;;;;;24.2;100;98440;;;;
2022/08/23 09:06:57;;;;;;;7;10.1;;;;;;;24.7;100;98450;;;;
2022/08/23 09:17:57;;;;;;;7.8;11;;;;;;;24.1;100;98440;;;;
2022/08/23 09:27:57;;;;;;;7.8;11;;;;;;;25.2;100;98440;;;;
2022/08/23 09:37:58;;;;;;;7.8;11;;;;;;;25.8;100;98440;;;;
2022/08/23 09:47:57;;;;;;;5.7;9.7;;;;;;;25.6;100;98450;;;;
2022/08/23 09:58:57;;;;;;;5.7;9.7;;;;;;;26.2;100;98450;;;;
2022/08/23 10:09:03;;;;;;;5.7;9.7;;;;;;;26.2;100;98450;;;;
2022/08/23 10:19:58;;;;;;;6.5;10;;;;;;;26;100;98450;;;;
2022/08/23 10:30:58;;;;;;;6.5;10;;;;;;;26.1;100;98450;;;;
2022/08/23 10:40:58;;;;;;;6.5;10;;;;;;;25.8;100;98450;;;;
2022/08/23 10:51:58;;;;;;;6.3;9.6;;;;;;;26.3;100;98460;;;;
2022/08/23 11:02:58;;;;;;;6.3;9.6;;;;;;;26.7;100;98460;;;;
2022/08/23 11:13:57;;;;;;;6.3;9.6;;;;;;;25.6;100;98470;;;;
2022/08/23 11:23:57;;;;;;;6.2;9.4;;;;;;;26.4;100;98470;;;;
2022/08/23 11:34:58;;;;;;;6.2;9.4;;;;;;;26.5;100;98480;;;;
2022/08/23 11:44:58;;;;;;;6.2;9.4;;;;;;;26.4;100;98480;;;;
2022/08/23 11:55:57;;;;;;;6.5;10.1;;;;;;;26.7;100;98480;;;;
2022/08/23 12:05:57;;;;;;;6.5;10.1;;;;;;;26.5;100;98480;;;;
2022/08/23 12:15:57;;;;;;;6.5;10.1;;;;;;;26.1;100;98480;;;;
2022/08/23 12:25:57;;;;;;;6.2;9.5;;;;;;;26.2;100;98480;;;;
2022/08/23 12:36:57;;;;;;;6.2;9.5;;;;;;;26.5;100;98480;;;;
2022/08/23 12:46:58;;;;;;;6.2;9.5;;;;;;;26.4;100;98480;;;;
2022/08/23 12:56:57;;;;;;;5;8.2;;;;;;;26.5;100;98470;;;;
2022/08/23 13:07:57;;;;;;;5;8.2;;;;;;;26.5;100;98470;;;;
2022/08/23 13:18:58;;;;;;;4.7;7.4;;;;;;;26.8;100;98470;;;;
2022/08/23 13:29:58;;;;;;;4.7;7.4;;;;;;;27;100;98470;;;;
2022/08/23 13:39:58;;;;;;;4.7;7.4;;;;;;;26.9;100;98460;;;;
2022/08/23 13:50:58;;;;;;;4.3;7;;;;;;;26.9;100;98460;;;;
2022/08/23 14:01:57;;;;;;;4.3;7;;;;;;;27.3;100;98450;;;;
2022/08/23 14:11:58;;;;;;;4.3;7;;;;;;;27.1;100;98460;;;;
2022/08/23 14:21:57;;;;;;;4.4;7;;;;;;;27.7;100;98460;;;;
2022/08/23 14:32:57;;;;;;;4.4;7;;;;;;;27.7;100;98450;;;;
2022/08/23 14:43:58;;;;;;;4.4;7;;;;;;;28;100;98440;;;;
2022/08/23 14:53:57;;;;;;;5.2;7.4;;;;;;;28.6;100;98440;;;;
2022/08/23 15:04:58;;;;;;;5.2;7.4;;;;;;;29.4;100;98460;;;;
2022/08/23 15:14:58;;;;;;;5.2;7.4;;;;;;;29.8;100;98470;;;;
2022/08/23 15:25:57;;;;;;;5.5;8.3;;;;;;;29.6;100;98480;;;;
2022/08/23 15:35:59;;;;;;;5.5;8.3;;;;;;;30.6;99.1;98490;;;;
2022/08/23 15:46:58;;;;;;;5.5;8.3;;;;;;;31.1;95;98500;;;;
2022/08/23 15:57:58;;;;;;;6.1;9.6;;;;;;;30.3;95.7;98500;;;;
2022/08/23 16:08:57;;;;;;;6.1;9.6;;;;;;;29.9;100;98500;;;;
2022/08/23 16:18:58;;;;;;;6.1;9;;;;;;;29.1;100;98520;;;;
2022/08/23 16:29:58;;;;;;;6.1;9;;;;;;;28;100;98530;;;;
2022/08/23 16:39:58;;;;;;;6.1;9;;;;;;;26.9;100;98530;;;;
2022/08/23 16:50:57;;;;;;;10.3;15.2;;;;;;;26.7;100;98530;;;;
2022/08/23 17:00:58;;;;;;;10.3;15.2;;;;;;;26.3;100;98530;;;;
2022/08/23 17:10:57;;;;;;;10.3;15.2;;;;;;;26;100;98540;;;;
2022/08/23 17:20:58;;;;;;;11;13.3;;;;;;;25.7;100;98550;;;;
2022/08/23 17:31:58;;;;;;;11;13.3;;;;;;;24.5;100;98530;;;;
2022/08/23 17:41:58;;;;;;;11;13.3;;;;;;;24.1;100;98540;;;;
2022/08/23 17:51:58;;;;;;;11.4;16.3;;;;;;;23.5;100;98550;;;;
2022/08/23 18:01:58;;;;;;;11.4;16.3;;;;;;;23.1;100;98550;;;;
2022/08/23 18:12:58;;;;;;;11.4;16.3;;;;;;;22.6;100;98600;;;;
2022/08/23 18:22:58;;;;;;;12.8;17.8;;;;;;;22.2;100;98610;;;;
2022/08/23 18:32:58;;;;;;;12.8;17.8;;;;;;;21.8;100;98620;;;;
2022/08/23 18:43:58;;;;;;;12.8;17.8;;;;;;;21.7;100;98620;;;;
2022/08/23 18:53:58;;;;;;;14.6;19.3;;;;;;;21.4;100;98630;;;;
2022/08/23 19:03:58;;;;;;;14.6;19.3;;;;;;;21.1;100;98630;;;;
2022/08/23 19:14:58;;;;;;;14.6;19.3;;;;;;;21.1;100;98640;;;;
2022/08/23 19:25:58;;;;;;;14.4;17.8;;;;;;;21.1;100;98650;;;;
2022/08/23 19:36:58;;;;;;;14.4;17.8;;;;;;;21;100;98670;;;;
2022/08/23 19:47:58;;;;;;;14.4;17.8;;;;;;;20.9;100;98670;;;;
2022/08/23 19:57:58;;;;;;;17.2;23.7;;;;;;;20.7;100;98670;;;;
2022/08/23 20:07:59;;;;;;;17.2;23.7;;;;;;;20.4;100;98680;;;;
2022/08/23 20:17:58;;;;;;;17.2;23.7;;;;;;;20.2;100;98700;;;;
2022/08/23 20:28:58;;;;;;;20.6;26.5;;;;;;;20.3;100;98710;;;;
2022/08/23 20:39:58;;;;;;;20.6;26.5;;;;;;;20.2;100;98700;;;;
2022/08/23 20:50:58;;;;;;;23.3;29.6;;;;;;;20.3;100;98700;;;;
2022/08/23 21:00:58;;;;;;;23.3;29.6;;;;;;;20.4;100;98710;;;;
2022/08/23 21:10:58;;;;;;;23.3;29.6;;;;;;;20.2;100;98700;;;;
2022/08/23 21:21:58;;;;;;;24.8;30.3;;;;;;;20.1;100;98700;;;;
2022/08/23 21:31:58;;;;;;;24.8;30.3;;;;;;;20.2;100;98710;;;;
2022/08/23 21:42:58;;;;;;;24.8;30.3;;;;;;;20;100;98710;;;;
2022/08/23 21:53:58;;;;;;;25.1;32.5;;;;;;;20;100;98710;;;;
2022/08/23 22:04:58;;;;;;;25.1;32.5;;;;;;;20.2;100;98700;;;;
2022/08/23 22:16:00;;;;;;;25.1;32.5;;;;;;;20.1;100;98700;;;;
2022/08/23 22:25:58;;;;;;;25.1;31.8;;;;;;;20.1;100;98700;;;;
2022/08/23 22:36:58;;;;;;;25.1;31.8;;;;;;;20.1;100;98690;;;;
2022/08/23 22:46:58;;;;;;;25.1;31.8;;;;;;;20.1;100;98690;;;;
2022/08/23 22:57:58;;;;;;;24.8;32.3;;;;;;;19.8;100;98690;;;;
2022/08/23 23:08:58;;;;;;;24.8;32.3;;;;;;;20;100;98690;;;;
2022/08/23 23:21:02;;;;;;;25.7;34.4;;;;;;;20.1;100;98690;;;;
2022/08/23 23:29:58;;;;;;;25.7;34.4;;;;;;;20.1;100;98690;;;;
2022/08/23 23:39:58;;;;;;;25.7;34.4;;;;;;;20;100;98700;;;;
2022/08/23 23:50:58;;;;;;;25.6;32.7;;;;;;;19.9;100;98710;;;;
